Terminal Aerodrome Forecast
Issued by NWS

Home | Current Version | Previous Version | Text Only | Print | Product List | Glossary On
Versions: 1 2 3 4 5 6 7 8 9 10 11 12 13 14
000
FTUS44 KLIX 202320
TAFHUM
TAF
KHUM 202320Z 2100/2124 13004KT P6SM FEW200
     FM211300 06004KT P6SM FEW010 SCT250
     FM212000 12007KT P6SM BKN045 BKN120=

USA.gov is the U.S. government's official web portal to all federal, state and local government web resources and services.